KPGD/PGD METAR and TAF weather

Enter ICAO airport designator
Station Type Date Time Source
KPGD METAR 2022/11/26 07:53 UTC NOAA

KPGD 260753Z AUTO 00000KT 1/4SM FG VV002 22/22 A3005 RMK AO2 SLP176 T02170217 $


Station Type Date Time Source
KPGD Decoded METAR 2022/11/26 07:53 UTC NOAA

PUNTA GORDA CHARLOTTE COUNTY, FL, United States (KPGD) 26-55N 82-00W 7M
Nov 26, 2022 - 02:53 AM EST / 2022.11.26 0753 UTC
Wind: Calm:0
Visibility: 1/4 mile(s):0
Sky conditions: obscured
Weather: fog
Temperature: 71.1 F (21.7 C)
Dew Point: 71.1 F (21.7 C)
Relative Humidity: 100%
Pressure (altimeter): 30.05 in. Hg (1017 hPa)
ob: KPGD 260753Z AUTO 00000KT 1/4SM FG VV002 22/22 A3005 RMK AO2 SLP176 T02170217
cycle: 8

Station Type Date Time Source
KPGD TAF 2022/11/26 07:18 UTC NOAA

TAF
AMD KPGD 260717Z 2607/2706 VRB03KT 1SM BR OVC002
TEMPO 2607/2609 1/4SM FG
FM260900 00000KT 1/4SM FG OVC002
TEMPO 2609/2613 2SM BR OVC004
FM261300 11005KT 1SM BR BKN004
TEMPO 2613/2614 3SM BR SCT004 BKN010
FM261400 18008KT P6SM SCT030 SCT250
FM262100 22007KT P6SM SCT040 BKN250

Example: see airport list